Terminal Aerodrome Forecast
Issued by NWS New Orleans/Baton Rouge, LA

Home | Current Version | Previous Version | Text Only | Print | Product List | Glossary On
Versions: 1 2 3 4 5 6 7 8 9 10 11 12 13 14 15 16 17
672
FTUS44 KLIX 240807 AAB
TAFBTR
TAF AMD
KBTR 240807Z 2408/2506 12010KT P6SM BKN008
     FM241400 14014KT P6SM BKN025
     FM250100 15014KT P6SM OVC020 PROB30 2502/2506 4SM -TSRA
      OVC010CB=

USA.gov is the U.S. government's official web portal to all federal, state and local government web resources and services.